Camptonville, California
Current Conditions -  °F | °C
As of 2:40 PM on Friday 19 Dec 2014 (Local Time) from KGOO Reporting Station
Overcast Overcast  
Wind Chill: 36°   Ceiling: 3400
Heat Index: 41°   Visibility: 3mi
Dew Point: 41°   Wind: 8mph
Humidity: 100%   Direction: 120°ESE
Pressure: 30.14"   Gusts: NA
Location:  39.45°N, 121.05°W
Report Text: KGOO 192240Z AUTO 12007KT 3SM SCT023 BKN034 OVC045 05/05 A3014 RMK AO1 P0002
Loading
Personal Weather Stations






























Interactive Weather Map New forecast layout! Learn more

10-Day Weather Forecast

Advertisements
Track Severe Weather on mobile